createdAt,value
2022-10-11T00:01:05.150Z,95587.98
2022-10-11T00:03:31.332Z,95585.50
2022-10-11T00:05:57.677Z,95586.80
2022-10-11T00:08:24.014Z,95557.61
2022-10-11T00:10:50.353Z,95576.48
2022-10-11T00:13:16.689Z,95576.48
2022-10-11T00:15:43.028Z,95590.11
2022-10-11T00:18:09.364Z,95592.95
2022-10-11T00:20:35.706Z,95591.05
2022-10-11T00:23:02.041Z,95573.47
2022-10-11T00:25:28.392Z,95573.47
2022-10-11T00:27:54.718Z,95589.66
2022-10-11T00:30:21.062Z,95584.00
2022-10-11T00:32:47.396Z,95574.81
2022-10-11T00:35:13.759Z,95581.29
2022-10-11T00:37:40.090Z,95580.94
2022-10-11T00:40:06.442Z,95572.03
2022-10-11T00:42:32.779Z,95576.36
2022-10-11T00:44:59.114Z,95578.96
2022-10-11T00:47:25.450Z,95576.36
2022-10-11T00:49:51.822Z,95569.89
2022-10-11T00:52:18.159Z,95547.92
2022-10-11T00:54:44.492Z,95569.53
2022-10-11T00:57:10.825Z,95569.53
2022-10-11T00:59:37.161Z,95574.36
2022-10-11T01:02:03.499Z,95563.00
2022-10-11T01:04:29.853Z,95569.17
2022-10-11T01:06:56.207Z,95569.17
2022-10-11T01:09:22.535Z,95567.55
2022-10-11T01:11:48.869Z,95566.94
2022-10-11T01:14:15.214Z,95562.84
2022-10-11T01:16:41.555Z,95549.69
2022-10-11T01:19:07.896Z,95568.84
2022-10-11T01:21:34.263Z,95550.98
2022-10-11T01:24:04.670Z,95561.19
2022-10-11T01:26:26.972Z,95565.08
2022-10-11T01:28:53.374Z,95559.77
2022-10-11T01:31:19.642Z,95558.13
2022-10-11T01:33:45.984Z,95559.42
2022-10-11T01:36:12.326Z,95556.00
2022-10-11T01:38:38.667Z,95552.58
2022-10-11T01:41:05.006Z,95549.67
2022-10-11T01:43:31.389Z,95544.59
2022-10-11T01:45:57.723Z,95548.84
2022-10-11T01:48:24.071Z,95549.67
2022-10-11T01:50:50.406Z,95550.25
2022-10-11T01:53:16.750Z,95554.97
2022-10-11T01:55:43.081Z,95555.32
2022-10-11T01:58:09.431Z,95555.32
2022-10-11T02:00:35.764Z,95558.50
2022-10-11T02:03:02.103Z,95535.48
2022-10-11T02:05:28.469Z,95554.61
2022-10-11T02:07:54.811Z,95537.70
2022-10-11T02:10:21.147Z,95538.99
2022-10-11T02:12:47.508Z,95556.16
2022-10-11T02:15:13.843Z,95551.45
2022-10-11T02:17:40.192Z,95551.45
2022-10-11T02:20:06.527Z,95547.23
2022-10-11T02:22:32.864Z,95547.23
2022-10-11T02:24:59.198Z,95546.62
2022-10-11T02:27:25.555Z,95541.23
2022-10-11T02:29:51.872Z,95540.29
2022-10-11T02:32:18.320Z,95538.16
2022-10-11T02:34:44.666Z,95538.75
2022-10-11T02:37:11.008Z,95538.75
2022-10-11T02:39:37.394Z,95542.53
2022-10-11T02:42:03.739Z,95539.37
2022-10-11T02:44:30.071Z,95538.55
2022-10-11T02:46:56.422Z,95537.13
2022-10-11T02:49:22.758Z,95535.95
2022-10-11T02:51:49.104Z,95535.95
2022-10-11T02:54:15.435Z,95529.38
2022-10-11T02:56:41.767Z,95534.70
2022-10-11T02:59:08.106Z,95525.63
2022-10-11T03:01:34.517Z,95516.27
2022-10-11T03:04:00.787Z,95507.20
2022-10-11T03:06:27.143Z,95514.60
2022-10-11T03:08:53.468Z,95527.66
2022-10-11T03:11:19.839Z,95529.63
2022-10-11T03:13:46.168Z,95522.22
2022-10-11T03:16:12.805Z,95512.58
2022-10-11T03:18:38.842Z,95512.58
2022-10-11T03:21:05.210Z,95523.30
2022-10-11T03:23:31.571Z,95508.50
2022-10-11T03:25:57.918Z,95518.95
2022-10-11T03:28:24.309Z,95519.27
2022-10-11T03:30:50.592Z,95506.59
2022-10-11T03:33:16.928Z,95515.84
2022-10-11T03:35:43.272Z,95515.84
2022-10-11T03:38:12.904Z,95503.91
2022-10-11T03:40:35.962Z,95508.02
2022-10-11T03:43:02.292Z,95506.72
2022-10-11T03:45:28.664Z,95493.54
2022-10-11T03:47:55.002Z,95500.62
2022-10-11T03:50:21.342Z,95510.48
2022-10-11T03:52:47.672Z,95510.48
2022-10-11T03:55:14.017Z,95508.00
2022-10-11T03:57:40.354Z,95504.11
2022-10-11T04:00:06.706Z,95500.97
2022-10-11T04:02:38.292Z,95502.12
2022-10-11T04:04:59.382Z,95502.12
2022-10-11T04:07:25.712Z,95494.70
2022-10-11T04:09:52.064Z,95493.05
2022-10-11T04:12:18.395Z,95477.42
2022-10-11T04:14:44.740Z,95496.94
2022-10-11T04:19:53.349Z,95498.93
2022-10-11T04:22:19.683Z,95505.21
2022-10-11T04:24:46.017Z,95497.69
2022-10-11T04:27:12.362Z,95497.69
2022-10-11T04:29:38.717Z,95507.87
2022-10-11T04:32:05.047Z,95508.50
2022-10-11T04:34:31.381Z,95506.70
2022-10-11T04:36:57.730Z,95508.83
2022-10-11T04:39:24.124Z,95513.31
2022-10-11T04:41:50.500Z,95482.23
2022-10-11T04:44:16.841Z,95482.23
2022-10-11T04:46:43.176Z,95507.20
2022-10-11T04:49:09.515Z,95504.00
2022-10-11T04:51:35.869Z,95507.20
2022-10-11T04:54:02.237Z,95500.02
2022-10-11T04:56:28.574Z,95498.73
2022-10-11T04:58:54.914Z,95498.73
2022-10-11T05:01:21.261Z,95508.78
2022-10-11T05:03:47.593Z,95502.52
2022-10-11T05:06:14.377Z,95501.98
2022-10-11T05:08:40.278Z,95509.98
2022-10-11T05:11:06.622Z,95509.52
2022-10-11T05:13:33.045Z,95509.52
2022-10-11T05:15:59.481Z,95507.39
2022-10-11T05:18:25.792Z,95507.22
2022-10-11T05:20:52.123Z,95508.56
2022-10-11T05:23:18.459Z,95507.54
2022-10-11T05:25:44.834Z,95513.05
2022-10-11T05:28:11.215Z,95515.70
2022-10-11T05:30:39.950Z,95523.69
2022-10-11T05:33:06.282Z,95523.69
2022-10-11T05:35:32.624Z,95527.77
2022-10-11T05:37:58.956Z,95522.49
2022-10-11T05:40:25.297Z,95520.69
2022-10-11T05:42:51.626Z,95514.00
2022-10-11T05:45:17.965Z,95514.00
2022-10-11T05:47:44.302Z,95533.75
2022-10-11T05:50:10.645Z,95500.25
2022-10-11T05:52:36.990Z,95529.64
2022-10-11T05:55:03.331Z,95534.34
2022-10-11T05:57:31.750Z,95530.45
2022-10-11T05:59:56.030Z,95535.41
2022-10-11T06:02:22.370Z,95528.36
2022-10-11T06:04:48.734Z,95529.91
2022-10-11T06:07:15.068Z,95519.88
2022-10-11T06:09:41.451Z,95509.00
2022-10-11T06:12:07.786Z,95509.00
2022-10-11T06:14:34.127Z,95490.20
2022-10-11T06:17:00.504Z,95490.20
2022-10-11T06:19:26.838Z,95517.09
2022-10-11T06:21:53.187Z,95495.95
2022-10-11T06:24:19.566Z,95506.76
2022-10-11T06:26:45.920Z,95491.11
2022-10-11T06:29:12.261Z,95493.38
2022-10-11T06:31:38.657Z,95493.92
2022-10-11T06:34:04.992Z,95526.48
2022-10-11T06:36:31.377Z,95520.37
2022-10-11T06:38:57.730Z,95522.61
2022-10-11T06:41:24.066Z,95521.67
2022-10-11T06:43:50.406Z,95521.67
2022-10-11T06:46:16.762Z,95525.56
2022-10-11T06:48:43.141Z,95526.36
2022-10-11T06:51:09.478Z,95538.48
2022-10-11T06:53:35.830Z,95548.22
2022-10-11T06:56:02.633Z,95548.22
2022-10-11T06:58:28.598Z,95540.45
2022-10-11T07:00:55.107Z,95540.45
2022-10-11T07:03:21.411Z,95545.64
2022-10-11T07:05:47.779Z,95539.41
2022-10-11T07:08:14.131Z,95519.33
2022-10-11T07:10:40.475Z,95519.33
2022-10-11T07:13:06.810Z,95529.64
2022-10-11T07:15:33.184Z,95526.81
2022-10-11T07:17:59.539Z,95526.81
2022-10-11T07:20:25.883Z,95523.54
2022-10-11T07:22:52.224Z,95523.54
2022-10-11T07:25:18.566Z,95539.14
2022-10-11T07:27:44.945Z,95541.14
2022-10-11T07:30:11.287Z,95536.93
2022-10-11T07:32:37.624Z,95572.37
2022-10-11T07:35:03.975Z,95530.45
2022-10-11T07:37:30.336Z,95508.60
2022-10-11T07:39:56.788Z,95508.60
2022-10-11T07:42:23.105Z,95527.27
2022-10-11T07:44:49.471Z,95532.87
2022-10-11T07:47:15.828Z,95539.38
2022-10-11T07:49:42.255Z,95537.66
2022-10-11T07:52:08.616Z,95543.19
2022-10-11T07:54:35.074Z,95525.95
2022-10-11T07:57:01.420Z,95534.63
2022-10-11T07:59:27.847Z,95521.88
2022-10-11T08:01:54.262Z,95537.84
2022-10-11T08:04:20.585Z,95537.97
2022-10-11T08:06:51.113Z,95530.66
2022-10-11T08:09:13.316Z,95533.98
2022-10-11T08:11:39.662Z,95533.98
2022-10-11T08:14:06.025Z,95531.40
2022-10-11T08:16:32.397Z,95547.86
2022-10-11T08:18:58.747Z,95547.86
2022-10-11T08:21:25.084Z,95559.50
2022-10-11T08:23:51.482Z,95544.67
2022-10-11T08:26:17.857Z,95552.09
2022-10-11T08:28:44.250Z,95559.60
2022-10-11T08:31:10.571Z,95554.67
2022-10-11T08:33:36.962Z,95556.53
2022-10-11T08:36:03.904Z,95556.66
2022-10-11T08:38:29.721Z,95556.67
2022-10-11T08:40:56.042Z,95534.11
2022-10-11T08:43:22.396Z,95548.10
2022-10-11T08:45:48.729Z,95550.20
2022-10-11T08:48:15.079Z,95542.80
2022-10-11T08:50:41.435Z,95546.07
2022-10-11T08:53:07.779Z,95545.13
2022-10-11T08:55:34.116Z,95545.13
2022-10-11T08:58:00.459Z,95531.75
2022-10-11T09:00:26.800Z,95546.09
2022-10-11T09:03:07.894Z,95549.70
2022-10-11T09:05:19.478Z,95544.56
2022-10-11T09:07:45.821Z,95547.95
2022-10-11T09:10:12.147Z,95547.95
2022-10-11T09:12:40.815Z,95537.86
2022-10-11T09:15:04.870Z,95537.03
2022-10-11T09:17:31.177Z,95537.03
2022-10-11T09:19:57.519Z,95533.87
2022-10-11T09:22:28.120Z,95533.87
2022-10-11T09:24:50.204Z,95510.59
2022-10-11T09:27:16.556Z,95520.69
2022-10-11T09:29:42.911Z,95518.11
2022-10-11T09:32:09.259Z,95527.97
2022-10-11T09:34:35.633Z,95531.38
2022-10-11T09:37:01.954Z,95532.04
2022-10-11T09:39:28.278Z,95536.17
2022-10-11T09:41:54.669Z,95532.75
2022-10-11T09:44:21.005Z,95510.34
2022-10-11T09:46:47.355Z,95510.34
2022-10-11T09:49:13.749Z,95529.75
2022-10-11T09:51:40.097Z,95524.28
2022-10-11T09:54:06.447Z,95525.95
2022-10-11T09:56:32.793Z,95490.90
2022-10-11T09:58:59.133Z,95490.90
2022-10-11T10:01:25.552Z,95515.55
2022-10-11T10:03:51.823Z,95515.55
2022-10-11T10:06:18.170Z,95514.41
2022-10-11T10:08:44.513Z,95508.92
2022-10-11T10:11:10.857Z,95501.11
2022-10-11T10:13:37.237Z,95501.91
2022-10-11T10:16:03.918Z,95502.52
2022-10-11T10:18:29.918Z,95496.63
2022-10-11T10:20:56.394Z,95497.52
2022-10-11T10:23:22.716Z,95493.00
2022-10-11T10:25:49.071Z,95494.47
2022-10-11T10:28:15.440Z,95469.70
2022-10-11T10:30:41.740Z,95490.41
2022-10-11T10:33:08.075Z,95485.16
2022-10-11T10:35:34.414Z,95485.62
2022-10-11T10:38:00.761Z,95486.95
2022-10-11T10:40:27.089Z,95490.98
2022-10-11T10:42:53.463Z,95485.23
2022-10-11T10:45:21.802Z,95481.56
2022-10-11T10:47:46.141Z,95476.50
2022-10-11T10:50:12.490Z,95481.67
2022-10-11T10:52:38.873Z,95472.97
2022-10-11T10:55:05.220Z,95472.97
2022-10-11T10:57:31.552Z,95470.85
2022-10-11T10:59:57.922Z,95455.72
2022-10-11T11:02:41.350Z,95466.64
2022-10-11T11:04:50.678Z,95463.80
2022-10-11T11:07:16.973Z,95458.49
2022-10-11T11:09:43.311Z,95458.49
2022-10-11T11:12:09.643Z,95461.91
2022-10-11T11:14:35.983Z,95443.36
2022-10-11T11:17:02.320Z,95459.60
2022-10-11T11:19:28.674Z,95442.42
2022-10-11T11:21:55.009Z,95460.86
2022-10-11T11:24:21.349Z,95439.05
2022-10-11T11:26:47.689Z,95439.05
2022-10-11T11:29:14.077Z,95420.86
2022-10-11T11:31:40.718Z,95446.98
2022-10-11T11:34:07.016Z,95443.36
2022-10-11T11:36:33.390Z,95443.94
2022-10-11T11:38:59.732Z,95419.17
2022-10-11T11:41:26.122Z,95405.34
2022-10-11T11:43:52.468Z,95405.34
2022-10-11T11:46:18.805Z,95402.04
2022-10-11T11:48:45.153Z,95431.25
2022-10-11T11:51:11.494Z,95431.50
2022-10-11T11:53:37.841Z,95392.70
2022-10-11T11:56:04.179Z,95413.20
2022-10-11T11:58:30.538Z,95436.13
2022-10-11T12:00:56.880Z,95415.61
2022-10-11T12:03:23.254Z,95424.91
2022-10-11T12:05:49.656Z,95425.32
2022-10-11T12:08:15.998Z,95408.20
2022-10-11T12:10:42.335Z,95423.58
2022-10-11T12:13:08.698Z,95423.14
2022-10-11T12:15:35.058Z,95413.55
2022-10-11T12:18:01.400Z,95413.21
2022-10-11T12:20:28.961Z,95413.21
2022-10-11T12:22:54.133Z,95426.52
2022-10-11T12:25:21.447Z,95458.10
2022-10-11T12:27:46.840Z,95408.81
2022-10-11T12:30:13.184Z,95424.81
2022-10-11T12:32:39.535Z,95423.45
2022-10-11T12:35:05.912Z,95420.20
2022-10-11T12:37:32.250Z,95420.61
2022-10-11T12:39:58.641Z,95419.73
2022-10-11T12:42:24.975Z,95416.12
2022-10-11T12:44:51.347Z,95417.09
2022-10-11T12:47:17.688Z,95415.30
2022-10-11T12:49:44.060Z,95412.34
2022-10-11T12:52:10.433Z,95410.84
2022-10-11T12:54:37.460Z,95408.58
2022-10-11T12:57:03.193Z,95383.14
2022-10-11T12:59:29.522Z,95409.33
2022-10-11T13:01:55.862Z,95381.59
2022-10-11T13:04:22.206Z,95403.73
2022-10-11T13:06:48.544Z,95399.63
2022-10-11T13:09:14.885Z,95399.98
2022-10-11T13:11:41.224Z,95380.66
2022-10-11T13:14:07.637Z,95396.40
2022-10-11T13:16:33.973Z,95395.11
2022-10-11T13:19:00.326Z,95405.77
2022-10-11T13:21:26.665Z,95396.40
2022-10-11T13:23:52.994Z,95410.02
2022-10-11T13:26:19.386Z,95415.30
2022-10-11T13:28:45.797Z,95408.97
2022-10-11T13:31:12.083Z,95410.27
2022-10-11T13:33:38.428Z,95406.97
2022-10-11T13:36:05.002Z,95408.25
2022-10-11T13:38:31.119Z,95400.89
2022-10-11T13:40:57.468Z,95404.37
2022-10-11T13:43:23.807Z,95396.69
2022-10-11T13:45:50.145Z,95409.69
2022-10-11T13:48:16.489Z,95397.01
2022-10-11T13:50:42.826Z,95408.64
2022-10-11T13:53:09.195Z,95414.64
2022-10-11T13:55:35.546Z,95416.05
2022-10-11T13:58:01.907Z,95416.05
2022-10-11T14:00:28.255Z,95404.30
2022-10-11T14:02:54.597Z,95389.75
2022-10-11T14:05:20.969Z,95389.86
2022-10-11T14:07:47.393Z,95391.98
2022-10-11T14:10:13.744Z,95394.45
2022-10-11T14:12:40.091Z,95389.03
2022-10-11T14:15:06.458Z,95403.83
2022-10-11T14:17:32.835Z,95403.58
2022-10-11T14:20:03.978Z,95381.41
2022-10-11T14:22:25.555Z,95381.41
2022-10-11T14:24:51.896Z,95407.25
2022-10-11T14:27:18.235Z,95406.09
2022-10-11T14:30:00.310Z,95403.97
2022-10-11T14:32:10.928Z,95383.89
2022-10-11T14:34:37.313Z,95406.89
2022-10-11T14:37:03.637Z,95403.15
2022-10-11T14:39:30.056Z,95403.15
2022-10-11T14:41:56.390Z,95398.80
2022-10-11T14:44:22.759Z,95398.91
2022-10-11T14:46:49.107Z,95382.60
2022-10-11T14:49:15.446Z,95382.60
2022-10-11T14:51:41.814Z,95401.14
2022-10-11T14:54:08.168Z,95400.56
2022-10-11T14:56:34.503Z,95400.92
2022-10-11T14:59:00.879Z,95407.74
2022-10-11T15:01:27.267Z,95410.33
2022-10-11T15:03:53.722Z,95415.36
2022-10-11T15:06:20.066Z,95413.24
2022-10-11T15:08:46.400Z,95405.78
2022-10-11T15:11:12.741Z,95412.66
2022-10-11T15:13:39.088Z,95415.49
2022-10-11T15:16:05.648Z,95387.60
2022-10-11T15:18:31.812Z,95401.80
2022-10-11T15:20:58.153Z,95411.40
2022-10-11T15:23:24.488Z,95411.40
2022-10-11T15:25:50.823Z,95385.73
2022-10-11T15:28:17.213Z,95415.66
2022-10-11T15:30:43.538Z,95416.70
2022-10-11T15:33:09.887Z,95416.70
2022-10-11T15:35:36.233Z,95402.07
2022-10-11T15:38:02.578Z,95402.07
2022-10-11T15:40:28.904Z,95414.61
2022-10-11T15:42:55.248Z,95419.42
2022-10-11T15:45:21.588Z,95419.42
2022-10-11T15:47:47.924Z,95415.16
2022-10-11T15:50:14.279Z,95415.30
2022-10-11T15:52:40.616Z,95415.91
2022-10-11T15:55:06.951Z,95417.20
2022-10-11T15:57:33.298Z,95415.57
2022-10-11T15:59:59.698Z,95415.57
2022-10-11T16:02:26.017Z,95423.33
2022-10-11T16:04:52.341Z,95413.83
2022-10-11T16:07:18.698Z,95413.83
2022-10-11T16:09:45.025Z,95430.50
2022-10-11T16:12:11.365Z,95419.23
2022-10-11T16:14:37.701Z,95412.55
2022-10-11T16:17:04.053Z,95439.30
2022-10-11T16:19:30.393Z,95439.30
2022-10-11T16:21:56.740Z,95442.62
2022-10-11T16:24:23.065Z,95430.98
2022-10-11T16:26:49.410Z,95435.44
2022-10-11T16:29:15.739Z,95435.44
2022-10-11T16:31:42.104Z,95427.95
2022-10-11T16:34:08.465Z,95427.95
2022-10-11T16:36:34.820Z,95432.75
2022-10-11T16:39:01.152Z,95433.58
2022-10-11T16:41:27.490Z,95443.07
2022-10-11T16:43:53.837Z,95443.07
2022-10-11T16:46:20.181Z,95443.20
2022-10-11T16:48:46.521Z,95448.73
2022-10-11T16:51:12.868Z,95450.96
2022-10-11T16:53:39.202Z,95452.59
2022-10-11T16:56:05.867Z,95452.59
2022-10-11T16:58:31.907Z,95432.88
2022-10-11T17:00:58.314Z,95435.13
2022-10-11T17:03:24.585Z,95453.89
2022-10-11T17:05:50.938Z,95454.36
2022-10-11T17:08:17.269Z,95454.36
2022-10-11T17:10:43.603Z,95442.63
2022-10-11T17:13:09.938Z,95442.63
2022-10-11T17:15:36.276Z,95435.83
2022-10-11T17:18:02.615Z,95439.81
2022-10-11T17:20:28.980Z,95439.81
2022-10-11T17:22:55.317Z,95460.27
2022-10-11T17:25:21.670Z,95456.85
2022-10-11T17:27:48.018Z,95456.85
2022-10-11T17:30:14.350Z,95458.61
2022-10-11T17:32:40.693Z,95464.70
2022-10-11T17:35:07.028Z,95463.05
2022-10-11T17:37:33.383Z,95462.36
2022-10-11T17:39:59.731Z,95459.78
2022-10-11T17:42:26.072Z,95468.45
2022-10-11T17:44:52.468Z,95468.45
2022-10-11T17:47:18.831Z,95448.97
2022-10-11T17:49:45.161Z,95464.36
2022-10-11T17:52:11.592Z,95464.36
2022-10-11T17:54:37.926Z,95465.19
2022-10-11T17:57:04.275Z,95472.12
2022-10-11T17:59:30.609Z,95469.66
2022-10-11T18:01:56.955Z,95469.66
2022-10-11T18:04:23.287Z,95479.63
2022-10-11T18:06:49.629Z,95457.41
2022-10-11T18:09:15.988Z,95471.75
2022-10-11T18:11:42.331Z,95475.39
2022-10-11T18:14:08.678Z,95472.69
2022-10-11T18:16:35.010Z,95472.69
2022-10-11T18:19:01.381Z,95465.50
2022-10-11T18:21:31.329Z,95470.56
2022-10-11T18:23:54.077Z,95461.64
2022-10-11T18:26:20.420Z,95461.64
2022-10-11T18:28:46.973Z,95468.69
2022-10-11T18:31:14.046Z,95471.59
2022-10-11T18:33:39.494Z,95475.97
2022-10-11T18:36:05.862Z,95475.97
2022-10-11T18:38:32.212Z,95478.19
2022-10-11T18:40:58.598Z,95478.19
2022-10-11T18:43:24.942Z,95474.42
2022-10-11T18:45:51.281Z,95466.31
2022-10-11T18:48:17.617Z,95464.56
2022-10-11T18:50:43.969Z,95480.64
2022-10-11T18:53:10.302Z,95480.64
2022-10-11T18:55:36.643Z,95481.23
2022-10-11T18:58:02.979Z,95481.23
2022-10-11T19:00:40.765Z,95478.66
2022-10-11T19:02:55.690Z,95478.66
2022-10-11T19:05:22.036Z,95474.30
2022-10-11T19:07:48.365Z,95474.30
2022-10-11T19:10:14.742Z,95478.66
2022-10-11T19:12:41.082Z,95484.52
2022-10-11T19:15:07.448Z,95479.95
2022-10-11T19:17:33.780Z,95479.95
2022-10-11T19:20:00.125Z,95487.23
2022-10-11T19:22:26.459Z,95485.12
2022-10-11T19:24:52.806Z,95485.12
2022-10-11T19:27:19.136Z,95487.94
2022-10-11T19:29:45.487Z,95490.39
2022-10-11T19:32:11.838Z,95491.45
2022-10-11T19:34:38.178Z,95488.87
2022-10-11T19:37:04.548Z,95491.68
2022-10-11T19:39:30.890Z,95490.30
2022-10-11T19:41:57.231Z,95492.14
2022-10-11T19:44:23.634Z,95490.30
2022-10-11T19:46:52.377Z,95483.94
2022-10-11T19:49:16.320Z,95483.94
2022-10-11T19:51:42.666Z,95499.89
2022-10-11T19:54:09.008Z,95496.38
2022-10-11T19:56:36.563Z,95497.21
2022-10-11T19:59:01.730Z,95495.56
2022-10-11T20:01:28.142Z,95503.41
2022-10-11T20:03:54.427Z,95501.55
2022-10-11T20:06:20.759Z,95502.38
2022-10-11T20:08:52.750Z,95503.77
2022-10-11T20:11:13.440Z,95508.11
2022-10-11T20:13:39.801Z,95498.48
2022-10-11T20:16:06.141Z,95493.67
2022-10-11T20:18:32.477Z,95511.52
2022-10-11T20:20:58.826Z,95511.52
2022-10-11T20:23:27.629Z,95503.77
2022-10-11T20:25:51.500Z,95507.28
2022-10-11T20:28:17.899Z,95490.27
2022-10-11T20:30:44.205Z,95490.27
2022-10-11T20:33:10.550Z,95510.82
2022-10-11T20:35:36.917Z,95500.83
2022-10-11T20:38:03.253Z,95500.83
2022-10-11T20:40:29.593Z,95511.16
2022-10-11T20:42:55.930Z,95510.36
2022-10-11T20:45:22.266Z,95502.34
2022-10-11T20:47:48.605Z,95506.59
2022-10-11T20:50:16.669Z,95508.34
2022-10-11T20:52:41.305Z,95508.34
2022-10-11T20:55:07.638Z,95505.42
2022-10-11T20:57:34.242Z,95505.42
2022-10-11T21:00:00.360Z,95512.67
2022-10-11T21:02:26.698Z,95512.67
2022-10-11T21:04:53.042Z,95506.72
2022-10-11T21:07:19.389Z,95514.80
2022-10-11T21:09:45.722Z,95512.34
2022-10-11T21:12:12.076Z,95494.60
2022-10-11T21:14:38.396Z,95514.56
2022-10-11T21:17:04.735Z,95515.39
2022-10-11T21:19:31.078Z,95512.91
2022-10-11T21:21:57.429Z,95515.86
2022-10-11T21:24:23.769Z,95511.98
2022-10-11T21:26:50.112Z,95510.33
2022-10-11T21:29:16.447Z,95490.37
2022-10-11T21:31:42.802Z,95490.37
2022-10-11T21:34:09.150Z,95496.63
2022-10-11T21:36:35.483Z,95500.12
2022-10-11T21:39:01.826Z,95500.49
2022-10-11T21:41:28.206Z,95504.83
2022-10-11T21:43:54.550Z,95500.12
2022-10-11T21:46:20.929Z,95499.30
2022-10-11T21:48:47.282Z,95498.11
2022-10-11T21:53:39.985Z,95500.12
2022-10-11T21:56:06.331Z,95498.94
2022-10-11T21:58:32.670Z,95503.64
2022-10-11T22:00:59.015Z,95499.77
2022-10-11T22:03:25.359Z,95500.70
2022-10-11T22:05:51.711Z,95495.43
2022-10-11T22:08:18.534Z,95495.06
2022-10-11T22:10:44.884Z,95490.86
2022-10-11T22:13:11.238Z,95487.45
2022-10-11T22:15:37.588Z,95494.38
2022-10-11T22:18:05.240Z,95484.14
2022-10-11T22:20:30.289Z,95490.03
2022-10-11T22:22:56.661Z,95485.80
2022-10-11T22:25:23.003Z,95483.22
2022-10-11T22:27:49.344Z,95487.92
2022-10-11T22:30:15.693Z,95492.25
2022-10-11T22:32:42.056Z,95493.18
2022-10-11T22:35:08.415Z,95491.56
2022-10-11T22:37:34.976Z,95489.31
2022-10-11T22:40:01.092Z,95489.80
2022-10-11T22:42:27.734Z,95489.31
2022-10-11T22:44:53.797Z,95489.44
2022-10-11T22:47:20.141Z,95496.26
2022-10-11T22:49:46.488Z,95493.78
2022-10-11T22:52:12.840Z,95500.12
2022-10-11T22:54:39.181Z,95501.89
2022-10-11T22:57:05.553Z,95502.72
2022-10-11T22:59:31.901Z,95498.48
2022-10-11T23:01:58.245Z,95498.11
2022-10-11T23:04:24.584Z,95503.64
2022-10-11T23:06:50.924Z,95507.15
2022-10-11T23:09:17.268Z,95508.08
2022-10-11T23:11:43.635Z,95505.03
2022-10-11T23:14:09.980Z,95505.03
2022-10-11T23:16:36.365Z,95505.50
2022-10-11T23:19:02.710Z,95513.61
2022-10-11T23:21:30.115Z,95489.87
2022-10-11T23:23:55.416Z,95489.87
2022-10-11T23:26:22.790Z,95507.75
2022-10-11T23:28:49.176Z,95503.87
2022-10-11T23:31:15.475Z,95506.45
2022-10-11T23:33:41.836Z,95507.38
2022-10-11T23:36:08.209Z,95509.14
2022-10-11T23:38:34.563Z,95506.09
2022-10-11T23:41:00.915Z,95508.30
2022-10-11T23:43:27.261Z,95505.27
2022-10-11T23:45:53.599Z,95507.84
2022-10-11T23:48:19.935Z,95513.01
2022-10-11T23:50:46.279Z,95505.73
2022-10-11T23:53:12.676Z,95506.22
2022-10-11T23:55:39.004Z,95507.02
2022-10-11T23:58:05.360Z,95507.84
